Time;durP1;ratioP1;P1;durP2;ratioP2;P2;SDS_P1;SDS_P2;PMS_P1;PMS_P2;Temp;Humidity;BMP_temperature;BMP_pressure;BME280_temperature;BME280_humidity;BME280_pressure;Samples;Min_cycle;Max_cycle;Signal;HPM_P1;HPM_P2
2023/10/28 00:00:50;;;;;;;0.20;0.20;;;20.10;86.10;;;;;;6178402;23;20247;-87
2023/10/28 00:03:21;;;;;;;0.20;0.20;;;20.20;85.90;;;;;;6180055;23;20238;-86
2023/10/28 00:05:49;;;;;;;0.40;0.40;;;20.20;86.10;;;;;;6179408;23;20168;-86
2023/10/28 00:08:19;;;;;;;0.20;0.20;;;20.20;86.20;;;;;;6179561;23;20708;-87
2023/10/28 00:10:49;;;;;;;0.20;0.20;;;20.20;86.10;;;;;;6180314;23;20168;-88
2023/10/28 00:13:19;;;;;;;0.30;0.30;;;20.20;86.10;;;;;;6179259;23;20498;-87
2023/10/28 00:15:48;;;;;;;0.30;0.30;;;20.20;86.30;;;;;;6178631;23;20171;-86
2023/10/28 00:18:17;;;;;;;0.40;0.40;;;20.10;86.60;;;;;;6179826;23;20171;-88
2023/10/28 00:20:47;;;;;;;0.20;0.20;;;20.10;86.70;;;;;;6177997;23;20163;-85
2023/10/28 00:23:16;;;;;;;0.40;0.30;;;20.20;86.70;;;;;;6179302;23;20263;-87
2023/10/28 00:25:45;;;;;;;0.20;0.20;;;20.10;87.00;;;;;;6179040;23;20584;-84
2023/10/28 00:28:13;;;;;;;0.30;0.30;;;20.20;86.90;;;;;;6181679;23;20172;-88
2023/10/28 00:30:43;;;;;;;0.73;0.50;;;20.10;87.40;;;;;;6178134;23;20171;-85
2023/10/28 00:33:12;;;;;;;0.25;0.25;;;20.10;87.10;;;;;;6179058;23;20174;-88
2023/10/28 00:35:43;;;;;;;0.20;0.20;;;20.20;87.10;;;;;;6180108;23;20175;-89
2023/10/28 00:38:17;;;;;;;0.50;0.50;;;20.10;87.80;;;;;;6181601;23;20226;-89
2023/10/28 00:40:47;;;;;;;0.30;0.30;;;20.20;87.80;;;;;;6179670;23;20171;-88
2023/10/28 00:43:23;;;;;;;0.20;0.20;;;20.10;87.80;;;;;;6179691;23;20188;-86
2023/10/28 00:45:54;;;;;;;0.57;0.55;;;20.10;87.80;;;;;;6179920;23;20233;-87
2023/10/28 00:48:23;;;;;;;0.35;0.35;;;20.10;87.80;;;;;;6180614;23;20749;-86
2023/10/28 00:50:54;;;;;;;0.30;0.30;;;20.10;88.10;;;;;;6181058;23;20168;-87
2023/10/28 00:53:26;;;;;;;0.28;0.28;;;20.10;88.10;;;;;;6179952;23;20167;-87
2023/10/28 00:55:55;;;;;;;0.75;0.35;;;20.10;87.90;;;;;;6181426;23;20164;-86
2023/10/28 00:58:26;;;;;;;0.25;0.25;;;20.10;87.80;;;;;;6181705;23;20168;-87
2023/10/28 01:00:55;;;;;;;0.20;0.20;;;20.10;88.20;;;;;;6181399;23;20479;-85
2023/10/28 01:03:24;;;;;;;0.50;0.50;;;20.10;88.30;;;;;;6182307;23;20585;-85
2023/10/28 01:05:54;;;;;;;0.30;0.30;;;20.10;88.60;;;;;;6179733;23;20243;-89
2023/10/28 01:08:25;;;;;;;0.20;0.20;;;20.10;88.60;;;;;;6179777;23;20843;-87
2023/10/28 01:11:00;;;;;;;0.30;0.30;;;20.10;88.60;;;;;;6180760;23;20669;-86
2023/10/28 01:13:29;;;;;;;0.80;0.80;;;20.10;88.80;;;;;;6180929;23;20167;-86
2023/10/28 01:15:59;;;;;;;0.37;0.30;;;20.10;89.00;;;;;;6175062;23;20655;-86
2023/10/28 01:18:30;;;;;;;0.33;0.33;;;20.00;89.40;;;;;;6184290;23;20164;-87
2023/10/28 01:21:09;;;;;;;0.20;0.20;;;20.00;89.60;;;;;;6183323;23;20581;-85
2023/10/28 01:23:40;;;;;;;0.20;0.20;;;20.00;89.60;;;;;;6186315;23;20191;-86
2023/10/28 01:26:08;;;;;;;0.30;0.30;;;20.00;89.50;;;;;;6190325;23;20199;-86
2023/10/28 01:28:38;;;;;;;0.40;0.40;;;19.90;89.90;;;;;;6199719;23;20164;-86
2023/10/28 01:31:08;;;;;;;2.00;1.25;;;19.90;90.10;;;;;;6198932;23;20180;-85
2023/10/28 01:33:36;;;;;;;0.50;0.50;;;19.90;90.20;;;;;;6199076;23;20186;-87
2023/10/28 01:36:08;;;;;;;0.37;0.37;;;19.90;90.30;;;;;;6198564;23;20207;-87
2023/10/28 01:38:46;;;;;;;0.30;0.30;;;19.80;90.50;;;;;;6205836;23;20174;-88
2023/10/28 01:41:46;;;;;;;0.33;0.33;;;19.90;90.50;;;;;;6204428;23;20167;-85
2023/10/28 01:44:53;;;;;;;0.30;0.30;;;19.80;90.80;;;;;;6205941;23;20195;-86
2023/10/28 01:47:22;;;;;;;0.20;0.20;;;19.80;90.60;;;;;;6198974;23;20238;-87
2023/10/28 01:49:57;;;;;;;0.50;0.50;;;19.70;90.90;;;;;;6186386;23;20175;-88
2023/10/28 01:52:29;;;;;;;0.43;0.43;;;19.70;90.90;;;;;;6183435;23;20233;-88
2023/10/28 01:54:58;;;;;;;0.30;0.30;;;19.70;91.40;;;;;;6183002;23;20187;-87
2023/10/28 01:57:27;;;;;;;0.43;0.43;;;19.70;91.00;;;;;;6183077;23;20210;-86
2023/10/28 01:59:59;;;;;;;0.70;0.70;;;19.70;91.20;;;;;;6183274;23;20192;-87
2023/10/28 02:02:30;;;;;;;0.23;0.23;;;19.70;91.30;;;;;;6182476;23;20557;-86
2023/10/28 02:04:59;;;;;;;0.23;0.23;;;19.70;91.40;;;;;;6181871;23;20192;-86
2023/10/28 02:07:29;;;;;;;2.47;0.50;;;19.60;91.60;;;;;;6182614;23;20190;-86
2023/10/28 02:09:58;;;;;;;0.27;0.27;;;19.60;91.70;;;;;;6180481;23;20230;-86
2023/10/28 02:12:27;;;;;;;0.50;0.50;;;19.50;91.80;;;;;;6182365;23;20164;-88
2023/10/28 02:14:55;;;;;;;0.20;0.20;;;19.60;91.80;;;;;;6182007;23;20164;-87
2023/10/28 02:17:26;;;;;;;0.90;0.90;;;19.60;91.80;;;;;;6181876;23;20172;-87
2023/10/28 02:19:56;;;;;;;0.50;0.50;;;19.50;92.00;;;;;;6182034;23;20530;-88
2023/10/28 02:22:25;;;;;;;0.40;0.40;;;19.60;92.10;;;;;;6179047;23;20222;-88
2023/10/28 02:24:55;;;;;;;0.90;0.60;;;19.50;92.20;;;;;;6180750;23;20195;-86
2023/10/28 02:27:25;;;;;;;0.50;0.50;;;19.40;92.20;;;;;;6182178;23;20167;-90
2023/10/28 02:29:54;;;;;;;0.20;0.20;;;19.40;92.30;;;;;;6179659;23;20176;-87
2023/10/28 02:32:25;;;;;;;0.30;0.30;;;19.50;92.30;;;;;;6179910;23;20178;-86
2023/10/28 02:34:54;;;;;;;0.30;0.30;;;19.40;92.50;;;;;;6155131;23;20199;-86
2023/10/28 02:37:23;;;;;;;0.57;0.40;;;19.40;92.40;;;;;;6155210;23;20176;-85
2023/10/28 02:39:53;;;;;;;0.60;0.60;;;19.50;92.20;;;;;;6182532;23;20168;-87
2023/10/28 02:42:25;;;;;;;0.20;0.20;;;19.40;92.50;;;;;;6180880;23;20556;-86
2023/10/28 02:44:55;;;;;;;0.40;0.40;;;19.40;92.30;;;;;;6181172;23;20199;-88
2023/10/28 02:47:26;;;;;;;0.30;0.30;;;19.40;92.20;;;;;;6180237;23;20168;-85
2023/10/28 02:50:00;;;;;;;0.60;0.60;;;19.50;92.40;;;;;;6180180;23;20167;-87
2023/10/28 02:52:29;;;;;;;0.30;0.30;;;19.40;92.50;;;;;;6180280;23;20625;-86
2023/10/28 02:55:01;;;;;;;0.30;0.30;;;19.40;92.40;;;;;;6179751;23;20602;-86
2023/10/28 02:57:32;;;;;;;0.30;0.30;;;19.50;92.30;;;;;;6182002;23;20222;-87
2023/10/28 03:00:06;;;;;;;0.60;0.53;;;19.40;92.40;;;;;;6180275;23;20658;-85
2023/10/28 03:02:35;;;;;;;0.30;0.30;;;19.40;92.50;;;;;;6180063;23;20481;-85
2023/10/28 03:05:05;;;;;;;0.73;0.47;;;19.50;92.30;;;;;;6180464;23;20821;-85
2023/10/28 03:07:34;;;;;;;0.20;0.20;;;19.40;92.40;;;;;;6179202;23;20175;-86
2023/10/28 03:10:04;;;;;;;0.57;0.57;;;19.50;92.40;;;;;;6180172;23;20176;-87
2023/10/28 03:12:34;;;;;;;0.30;0.30;;;19.40;92.60;;;;;;6177754;23;20748;-86
2023/10/28 03:15:03;;;;;;;0.30;0.30;;;19.40;92.60;;;;;;6176328;23;20171;-86
2023/10/28 03:17:31;;;;;;;3.00;0.97;;;19.40;92.80;;;;;;6179687;23;20168;-87
2023/10/28 03:20:00;;;;;;;0.30;0.30;;;19.40;92.60;;;;;;6180656;23;20203;-87
2023/10/28 03:22:30;;;;;;;0.30;0.30;;;19.40;92.70;;;;;;6178974;23;20222;-88
2023/10/28 03:24:59;;;;;;;0.50;0.50;;;19.30;93.00;;;;;;6178317;23;20638;-86
2023/10/28 03:27:29;;;;;;;0.20;0.20;;;19.30;93.10;;;;;;6180747;23;20182;-86
2023/10/28 03:30:00;;;;;;;0.60;0.60;;;19.20;93.30;;;;;;6179674;23;20226;-87
2023/10/28 03:32:29;;;;;;;0.70;0.70;;;19.20;93.20;;;;;;6181769;23;20182;-85
2023/10/28 03:35:03;;;;;;;0.73;0.60;;;19.20;93.20;;;;;;6180397;23;20175;-87
2023/10/28 03:37:32;;;;;;;0.20;0.20;;;19.20;93.30;;;;;;6180577;23;20672;-86
2023/10/28 03:40:00;;;;;;;0.50;0.50;;;19.20;93.40;;;;;;6182087;23;20520;-86
2023/10/28 03:42:29;;;;;;;0.50;0.50;;;19.10;93.60;;;;;;6179984;23;20172;-88
2023/10/28 03:44:59;;;;;;;0.30;0.30;;;19.10;93.60;;;;;;6177471;23;20242;-85
2023/10/28 03:47:29;;;;;;;0.30;0.30;;;19.10;93.60;;;;;;6178938;23;20196;-85
2023/10/28 03:49:58;;;;;;;0.50;0.50;;;19.10;93.60;;;;;;6179400;23;20172;-87
2023/10/28 03:52:26;;;;;;;0.40;0.40;;;19.00;94.00;;;;;;6180802;23;20479;-87
2023/10/28 03:54:56;;;;;;;0.30;0.30;;;19.00;94.00;;;;;;6178609;23;20171;-86
2023/10/28 03:57:24;;;;;;;0.40;0.40;;;19.00;93.90;;;;;;6178888;23;20164;-85
2023/10/28 03:59:53;;;;;;;0.63;0.63;;;19.00;93.90;;;;;;6175346;23;20414;-86
2023/10/28 04:02:23;;;;;;;0.30;0.30;;;19.00;93.80;;;;;;6177967;23;20403;-85
2023/10/28 04:04:52;;;;;;;0.20;0.20;;;19.00;93.80;;;;;;6179222;23;20653;-85
2023/10/28 04:07:21;;;;;;;0.40;0.30;;;19.00;93.80;;;;;;6178941;23;20175;-85
2023/10/28 04:09:49;;;;;;;0.50;0.30;;;19.00;93.70;;;;;;6177299;23;20167;-83
2023/10/28 04:12:18;;;;;;;1.50;0.97;;;19.00;93.80;;;;;;6179692;23;20187;-86
2023/10/28 04:14:46;;;;;;;0.20;0.20;;;19.00;93.50;;;;;;6178143;23;20172;-85
2023/10/28 04:17:15;;;;;;;0.33;0.33;;;19.00;93.50;;;;;;6179712;23;20187;-88
2023/10/28 04:19:45;;;;;;;0.40;0.40;;;19.10;93.40;;;;;;6178917;23;20194;-86
2023/10/28 04:22:16;;;;;;;0.30;0.30;;;19.10;93.30;;;;;;6181680;23;20168;-89
2023/10/28 04:24:46;;;;;;;0.20;0.20;;;19.10;93.10;;;;;;6177650;23;20164;-87
2023/10/28 04:27:14;;;;;;;0.20;0.20;;;19.10;93.10;;;;;;6179259;23;20174;-88
2023/10/28 04:29:45;;;;;;;1.23;1.13;;;19.10;93.10;;;;;;6179070;23;20164;-87
2023/10/28 04:32:20;;;;;;;0.20;0.20;;;19.00;93.10;;;;;;6178860;23;20178;-86
2023/10/28 04:34:51;;;;;;;0.43;0.43;;;19.10;93.00;;;;;;6178950;23;20167;-88
2023/10/28 04:37:31;;;;;;;0.40;0.40;;;19.10;92.90;;;;;;6175042;23;20218;-86
2023/10/28 04:40:00;;;;;;;0.30;0.30;;;19.10;92.90;;;;;;6179307;23;20483;-87
2023/10/28 04:42:29;;;;;;;0.27;0.27;;;19.10;92.80;;;;;;6176251;23;20175;-84
2023/10/28 04:44:58;;;;;;;0.60;0.60;;;19.10;92.80;;;;;;6174463;23;20696;-84
2023/10/28 04:47:28;;;;;;;0.20;0.20;;;19.00;92.80;;;;;;6179060;23;20776;-85
2023/10/28 04:49:58;;;;;;;0.30;0.30;;;19.00;92.80;;;;;;6176892;23;20192;-84
2023/10/28 04:52:27;;;;;;;0.70;0.57;;;19.00;92.80;;;;;;6178161;23;20455;-85
2023/10/28 04:54:55;;;;;;;0.30;0.30;;;19.00;92.80;;;;;;6178391;23;20394;-87
2023/10/28 04:57:27;;;;;;;0.40;0.40;;;19.00;92.70;;;;;;6179406;23;20550;-88
2023/10/28 04:59:55;;;;;;;0.30;0.30;;;19.00;92.60;;;;;;6177723;23;20186;-86
2023/10/28 05:02:25;;;;;;;0.33;0.33;;;19.00;92.50;;;;;;6181118;23;20658;-87
2023/10/28 05:04:55;;;;;;;0.30;0.30;;;19.00;92.40;;;;;;6178353;23;20494;-86
2023/10/28 05:07:29;;;;;;;0.20;0.20;;;19.00;92.30;;;;;;6180263;23;20168;-93
2023/10/28 05:14:33;;;;;;;0.20;0.20;;;19.00;92.10;;;;;;6173016;23;20172;-88
2023/10/28 05:22:02;;;;;;;0.57;0.40;;;19.00;92.00;;;;;;5829743;24;20243;-86
2023/10/28 05:25:05;;;;;;;0.30;0.30;;;19.00;92.00;;;;;;5865796;24;20175;-87
2023/10/28 05:28:26;;;;;;;0.47;0.37;;;19.00;91.90;;;;;;5930650;23;20176;-85
2023/10/28 05:41:01;;;;;;;0.30;0.30;;;18.90;91.80;;;;;;6171216;23;20187;-87
2023/10/28 05:43:32;;;;;;;0.30;0.30;;;18.90;91.80;;;;;;6179301;23;20172;-86
2023/10/28 05:46:00;;;;;;;0.50;0.50;;;18.80;91.90;;;;;;6181460;23;20196;-87
2023/10/28 05:48:32;;;;;;;0.20;0.20;;;18.80;92.00;;;;;;6182353;23;20191;-92
2023/10/28 05:51:04;;;;;;;0.20;0.20;;;18.80;92.10;;;;;;6180512;23;20168;-88
2023/10/28 05:53:32;;;;;;;0.40;0.30;;;18.80;92.10;;;;;;6181417;23;20613;-89
2023/10/28 05:56:01;;;;;;;0.20;0.20;;;18.80;92.20;;;;;;6183185;23;20168;-87
2023/10/28 05:58:31;;;;;;;0.33;0.33;;;18.80;92.20;;;;;;6182506;23;20222;-86
2023/10/28 06:01:02;;;;;;;0.30;0.30;;;18.80;92.20;;;;;;6181147;23;20187;-86
2023/10/28 06:03:31;;;;;;;4.20;0.80;;;18.80;92.40;;;;;;6182244;23;20164;-88
2023/10/28 06:06:00;;;;;;;0.20;0.20;;;18.80;92.40;;;;;;6181175;23;20203;-90
2023/10/28 06:08:29;;;;;;;0.87;0.50;;;18.80;92.40;;;;;;6181788;23;20190;-88
2023/10/28 06:10:58;;;;;;;0.40;0.40;;;18.80;92.40;;;;;;6181855;23;20610;-85
2023/10/28 06:13:28;;;;;;;5.73;0.60;;;18.80;92.30;;;;;;6182322;23;20500;-86
2023/10/28 06:15:59;;;;;;;0.50;0.50;;;18.90;92.30;;;;;;6184790;23;20176;-89
2023/10/28 06:18:31;;;;;;;0.20;0.20;;;18.90;92.10;;;;;;6181653;23;20752;-89
2023/10/28 06:21:00;;;;;;;0.40;0.40;;;18.80;92.00;;;;;;6182531;23;20877;-84
2023/10/28 06:23:31;;;;;;;0.40;0.40;;;18.90;92.00;;;;;;6182794;23;20171;-85
2023/10/28 06:25:59;;;;;;;0.30;0.30;;;18.90;91.80;;;;;;6183335;23;20176;-85
2023/10/28 06:28:28;;;;;;;0.30;0.30;;;18.90;92.10;;;;;;6181936;23;20234;-82
2023/10/28 06:31:00;;;;;;;0.30;0.30;;;18.90;91.60;;;;;;6186552;23;20194;-86
2023/10/28 06:33:29;;;;;;;0.70;0.70;;;18.90;91.40;;;;;;6189308;23;20168;-85
2023/10/28 06:35:59;;;;;;;1.53;1.00;;;19.00;91.40;;;;;;6184416;23;20704;-86
2023/10/28 06:38:30;;;;;;;0.30;0.30;;;19.10;91.20;;;;;;6185491;23;20617;-86
2023/10/28 06:40:59;;;;;;;0.30;0.27;;;19.20;91.10;;;;;;6183284;23;20174;-85
2023/10/28 06:43:28;;;;;;;0.30;0.30;;;19.20;90.80;;;;;;6157928;23;20172;-84
2023/10/28 06:45:59;;;;;;;7.53;1.03;;;19.20;90.60;;;;;;6181901;23;20614;-85
2023/10/28 06:48:27;;;;;;;0.20;0.20;;;19.30;90.50;;;;;;6184054;23;20191;-84
2023/10/28 06:50:56;;;;;;;0.73;0.30;;;19.30;90.20;;;;;;6180074;23;20244;-87
2023/10/28 06:53:24;;;;;;;0.30;0.30;;;19.30;90.00;;;;;;6183538;23;20174;-88
2023/10/28 06:55:55;;;;;;;0.40;0.37;;;19.40;90.00;;;;;;6181074;23;20543;-88
2023/10/28 06:58:24;;;;;;;0.77;0.57;;;19.50;89.50;;;;;;6182901;23;20171;-86
2023/10/28 07:00:53;;;;;;;0.20;0.20;;;19.50;88.50;;;;;;6181874;23;20195;-86
2023/10/28 07:03:31;;;;;;;0.30;0.30;;;19.50;87.00;;;;;;6183422;23;20178;-87
2023/10/28 07:06:00;;;;;;;0.93;0.57;;;19.60;85.70;;;;;;6182676;23;20518;-88
2023/10/28 07:08:28;;;;;;;0.32;0.32;;;19.60;85.30;;;;;;6184031;23;20175;-83
2023/10/28 07:10:57;;;;;;;0.22;0.22;;;19.70;85.40;;;;;;6180577;23;20176;-85
2023/10/28 07:13:26;;;;;;;0.83;0.57;;;19.70;85.10;;;;;;6184098;23;20230;-85
2023/10/28 07:16:02;;;;;;;0.20;0.20;;;19.70;83.90;;;;;;6179985;23;20168;-82
2023/10/28 07:18:33;;;;;;;0.20;0.20;;;19.80;84.00;;;;;;6181657;23;20167;-85
2023/10/28 07:21:03;;;;;;;0.22;0.22;;;19.80;82.70;;;;;;6180206;23;20190;-87
2023/10/28 07:23:32;;;;;;;0.25;0.25;;;19.80;81.20;;;;;;6182370;23;20168;-84
2023/10/28 07:26:02;;;;;;;0.20;0.20;;;19.90;81.30;;;;;;6179751;23;20176;-84
2023/10/28 07:28:33;;;;;;;0.20;0.20;;;19.90;80.70;;;;;;6181395;23;20191;-84
2023/10/28 07:31:07;;;;;;;0.30;0.30;;;19.90;80.30;;;;;;6179222;23;20211;-86
2023/10/28 07:33:40;;;;;;;0.38;0.38;;;20.00;80.60;;;;;;6182071;23;20164;-88
2023/10/28 07:36:09;;;;;;;0.30;0.30;;;20.10;79.80;;;;;;6180658;23;20172;-88
2023/10/28 07:38:40;;;;;;;1.13;0.70;;;20.20;79.50;;;;;;6181727;23;20168;-86
2023/10/28 07:41:09;;;;;;;0.20;0.20;;;20.20;79.40;;;;;;6183347;23;20174;-89
2023/10/28 07:43:39;;;;;;;0.45;0.40;;;20.30;78.00;;;;;;6180862;23;20697;-89
2023/10/28 07:46:09;;;;;;;0.22;0.22;;;20.40;78.00;;;;;;6182715;23;20251;-89
2023/10/28 07:48:40;;;;;;;0.20;0.20;;;20.40;76.60;;;;;;6182955;23;20265;-86
2023/10/28 07:51:24;;;;;;;0.20;0.20;;;20.50;75.30;;;;;;6185955;23;20174;-89
2023/10/28 07:53:53;;;;;;;0.85;0.82;;;20.50;73.90;;;;;;6186614;23;20194;-88
2023/10/28 07:56:25;;;;;;;0.40;0.40;;;20.60;73.30;;;;;;6187358;23;20167;-92
2023/10/28 07:58:58;;;;;;;0.28;0.28;;;20.60;72.80;;;;;;6184481;23;20168;-89
2023/10/28 08:01:29;;;;;;;0.20;0.20;;;20.70;72.30;;;;;;6185632;23;20167;-90
2023/10/28 08:04:00;;;;;;;0.20;0.20;;;20.80;71.80;;;;;;6184290;23;20168;-88
2023/10/28 08:06:29;;;;;;;0.20;0.20;;;20.80;72.10;;;;;;6184400;23;20250;-92
2023/10/28 08:09:08;;;;;;;0.20;0.20;;;20.90;70.40;;;;;;6184942;23;20629;-88
2023/10/28 08:11:43;;;;;;;1.35;0.95;;;20.90;69.00;;;;;;6185983;23;20167;-90
2023/10/28 08:14:15;;;;;;;0.30;0.30;;;21.00;69.40;;;;;;6184332;23;20163;-90
2023/10/28 08:16:43;;;;;;;1.10;0.93;;;21.10;69.60;;;;;;6183716;23;20278;-89
2023/10/28 08:19:16;;;;;;;0.40;0.40;;;21.20;69.40;;;;;;6181175;23;20178;-88
2023/10/28 08:21:47;;;;;;;0.30;0.30;;;21.20;69.20;;;;;;6180153;23;20164;-88
2023/10/28 08:24:20;;;;;;;0.20;0.20;;;21.30;69.60;;;;;;6183976;23;20186;-88
2023/10/28 08:26:49;;;;;;;0.98;0.85;;;21.40;69.70;;;;;;6182920;23;20175;-89
2023/10/28 08:29:17;;;;;;;0.43;0.28;;;21.40;67.60;;;;;;6184930;23;20183;-88
2023/10/28 08:31:48;;;;;;;0.20;0.20;;;21.50;66.90;;;;;;6184619;23;20178;-88
2023/10/28 08:34:18;;;;;;;0.28;0.28;;;21.50;65.90;;;;;;6182911;23;20171;-91
2023/10/28 08:36:49;;;;;;;0.43;0.43;;;21.60;65.60;;;;;;6184124;23;20547;-91
2023/10/28 08:39:23;;;;;;;0.38;0.38;;;21.70;64.60;;;;;;6183378;23;20174;-89
2023/10/28 08:41:56;;;;;;;0.43;0.43;;;21.70;63.00;;;;;;6184435;23;20190;-91
2023/10/28 08:44:28;;;;;;;0.20;0.20;;;21.70;61.90;;;;;;6181486;23;20164;-87
2023/10/28 08:46:57;;;;;;;0.30;0.30;;;21.80;61.40;;;;;;6183547;23;20242;-87
2023/10/28 08:49:40;;;;;;;0.45;0.45;;;21.90;62.40;;;;;;6184601;23;20191;-91
2023/10/28 08:52:12;;;;;;;0.22;0.22;;;21.90;62.10;;;;;;6183203;23;20175;-85
2023/10/28 08:54:43;;;;;;;0.40;0.40;;;22.00;62.30;;;;;;6176206;23;20167;-83
2023/10/28 08:57:13;;;;;;;0.20;0.20;;;22.10;62.00;;;;;;6181444;23;20173;-82
2023/10/28 08:59:44;;;;;;;0.75;0.75;;;22.10;62.00;;;;;;6181670;23;20251;-85
2023/10/28 09:02:20;;;;;;;0.20;0.20;;;22.20;62.20;;;;;;6182054;23;20535;-88
2023/10/28 09:04:55;;;;;;;0.70;0.38;;;22.30;62.50;;;;;;6184067;23;20198;-91
2023/10/28 09:07:24;;;;;;;0.20;0.20;;;22.40;60.80;;;;;;6184000;23;20201;-86
2023/10/28 09:10:02;;;;;;;0.15;0.15;;;22.50;59.30;;;;;;6184562;23;20175;-86
2023/10/28 09:12:32;;;;;;;0.20;0.20;;;22.50;59.00;;;;;;6192959;23;20172;-88
2023/10/28 09:15:00;;;;;;;0.30;0.30;;;22.50;58.70;;;;;;6200302;23;20167;-88
2023/10/28 09:17:29;;;;;;;0.20;0.20;;;22.60;58.30;;;;;;6202273;23;20183;-88
2023/10/28 09:20:00;;;;;;;0.38;0.38;;;22.60;58.20;;;;;;6202691;23;20194;-87
2023/10/28 09:22:30;;;;;;;0.30;0.30;;;22.60;57.20;;;;;;6202572;23;20190;-90
2023/10/28 09:25:00;;;;;;;0.20;0.20;;;22.80;57.80;;;;;;6207347;23;20164;-85
2023/10/28 09:27:32;;;;;;;3.92;1.55;;;22.80;57.30;;;;;;6206156;23;20203;-89
2023/10/28 09:30:14;;;;;;;0.10;0.10;;;22.80;56.90;;;;;;6207397;23;20184;-91
2023/10/28 09:32:43;;;;;;;0.20;0.20;;;22.90;56.70;;;;;;6205361;23;20610;-87
2023/10/28 09:35:13;;;;;;;0.40;0.30;;;22.90;55.50;;;;;;6193081;23;20930;-87
2023/10/28 09:37:44;;;;;;;0.20;0.20;;;23.00;56.00;;;;;;6187846;23;20160;-89
2023/10/28 09:40:14;;;;;;;0.20;0.20;;;23.00;54.60;;;;;;6186454;23;20470;-88
2023/10/28 09:42:43;;;;;;;0.10;0.10;;;23.10;53.90;;;;;;6186000;23;20172;-87
2023/10/28 09:45:25;;;;;;;0.20;0.20;;;23.10;53.70;;;;;;6186498;23;20528;-89
2023/10/28 09:47:56;;;;;;;0.20;0.20;;;23.10;53.40;;;;;;6184944;23;20195;-89
2023/10/28 09:50:31;;;;;;;0.20;0.20;;;23.20;53.60;;;;;;6185912;23;20172;-93
2023/10/28 09:53:04;;;;;;;0.20;0.20;;;23.20;53.80;;;;;;6183377;23;20540;-88
2023/10/28 09:55:35;;;;;;;0.52;0.52;;;23.30;53.60;;;;;;6183796;23;20226;-84
2023/10/28 09:58:10;;;;;;;0.40;0.40;;;23.30;53.50;;;;;;6180871;23;20172;-86
2023/10/28 10:00:40;;;;;;;0.20;0.20;;;23.30;55.00;;;;;;6181488;23;20179;-84
2023/10/28 10:03:25;;;;;;;0.50;0.40;;;23.40;54.40;;;;;;6179274;23;20253;-86
2023/10/28 10:05:56;;;;;;;0.30;0.30;;;23.40;53.70;;;;;;6180248;23;20176;-84
2023/10/28 10:08:26;;;;;;;0.98;0.25;;;23.50;53.30;;;;;;6179167;23;20184;-86
2023/10/28 10:10:58;;;;;;;0.20;0.20;;;23.50;53.30;;;;;;6179335;23;20176;-84
2023/10/28 10:13:29;;;;;;;0.20;0.20;;;23.60;53.20;;;;;;6179620;23;20176;-83
2023/10/28 10:16:03;;;;;;;17.08;1.85;;;23.60;53.30;;;;;;6178940;23;20176;-84
2023/10/28 10:18:33;;;;;;;2.53;0.68;;;23.70;52.40;;;;;;6179438;23;20175;-85
2023/10/28 10:21:06;;;;;;;0.30;0.30;;;23.70;51.80;;;;;;6182307;23;20199;-86
2023/10/28 10:23:43;;;;;;;0.75;0.30;;;23.70;51.70;;;;;;6179808;23;20258;-87
2023/10/28 10:26:27;;;;;;;1.05;0.95;;;23.80;52.00;;;;;;6181279;23;20260;-83
2023/10/28 10:28:58;;;;;;;0.80;0.52;;;23.80;51.30;;;;;;6180576;23;20523;-86
2023/10/28 10:31:31;;;;;;;0.20;0.20;;;23.90;51.20;;;;;;6181454;23;20176;-86
2023/10/28 10:34:02;;;;;;;0.20;0.20;;;23.90;51.40;;;;;;6181072;23;20168;-88
2023/10/28 10:36:35;;;;;;;0.60;0.60;;;24.00;51.40;;;;;;6181496;23;20176;-87
2023/10/28 10:39:14;;;;;;;0.65;0.52;;;24.10;51.00;;;;;;6183042;23;20172;-87
2023/10/28 10:41:48;;;;;;;0.70;0.43;;;24.10;50.90;;;;;;6187704;23;20168;-91
2023/10/28 10:44:38;;;;;;;0.20;0.20;;;24.20;50.10;;;;;;6185555;23;20233;-94
2023/10/28 10:47:24;;;;;;;2.35;0.40;;;24.20;50.10;;;;;;6186530;23;20238;-90
2023/10/28 10:49:53;;;;;;;0.85;0.35;;;24.20;50.10;;;;;;6183763;23;20184;-87
2023/10/28 10:52:24;;;;;;;0.38;0.38;;;24.30;50.40;;;;;;6183297;23;20222;-85
2023/10/28 10:54:53;;;;;;;0.20;0.20;;;24.30;50.40;;;;;;6184669;23;20260;-88
2023/10/28 10:57:22;;;;;;;0.90;0.73;;;24.30;50.20;;;;;;6182797;23;20220;-86
2023/10/28 10:59:51;;;;;;;0.30;0.30;;;24.40;50.80;;;;;;6183219;23;20951;-85
2023/10/28 11:02:23;;;;;;;0.43;0.38;;;24.40;50.30;;;;;;6180847;23;20626;-86
2023/10/28 11:04:52;;;;;;;0.20;0.20;;;24.50;50.50;;;;;;6178451;23;20172;-85
2023/10/28 11:07:26;;;;;;;0.20;0.20;;;24.60;50.30;;;;;;6179634;23;20634;-88
2023/10/28 11:09:56;;;;;;;0.32;0.32;;;24.70;51.50;;;;;;6181199;23;20503;-86
2023/10/28 11:12:25;;;;;;;5.05;0.68;;;24.70;50.00;;;;;;6179462;23;20168;-85
2023/10/28 11:14:55;;;;;;;0.95;0.90;;;24.80;49.50;;;;;;6178130;23;20168;-87
2023/10/28 11:17:25;;;;;;;0.20;0.20;;;24.80;50.20;;;;;;6180114;23;20730;-86
2023/10/28 11:19:54;;;;;;;0.25;0.25;;;24.80;49.80;;;;;;6183390;23;20188;-89
2023/10/28 11:22:31;;;;;;;1.05;0.82;;;24.90;49.90;;;;;;6183097;23;20225;-90
2023/10/28 11:25:04;;;;;;;0.75;0.30;;;24.90;49.50;;;;;;6181598;23;20243;-89
2023/10/28 11:27:37;;;;;;;0.20;0.20;;;25.00;49.70;;;;;;6181061;23;20168;-88
2023/10/28 11:30:08;;;;;;;0.52;0.30;;;25.00;49.50;;;;;;6183402;23;20196;-88
2023/10/28 11:32:40;;;;;;;0.22;0.22;;;25.00;49.50;;;;;;6186433;23;20168;-92
2023/10/28 11:35:11;;;;;;;0.43;0.43;;;25.10;48.30;;;;;;6183796;23;20175;-90
2023/10/28 11:37:41;;;;;;;0.20;0.20;;;25.10;48.20;;;;;;6183994;23;20172;-89
2023/10/28 11:40:11;;;;;;;0.30;0.30;;;25.10;48.50;;;;;;6183505;23;20187;-90
2023/10/28 11:42:43;;;;;;;0.30;0.30;;;25.10;48.60;;;;;;6183417;23;20191;-87
2023/10/28 11:45:15;;;;;;;0.20;0.20;;;25.10;48.00;;;;;;6182493;23;20195;-90
2023/10/28 11:47:44;;;;;;;0.25;0.25;;;25.20;48.10;;;;;;6182857;23;20223;-88
2023/10/28 11:50:13;;;;;;;0.20;0.20;;;25.20;48.30;;;;;;6183751;23;20195;-91
2023/10/28 11:52:45;;;;;;;0.17;0.17;;;25.20;48.10;;;;;;6181831;23;20630;-86
2023/10/28 11:55:16;;;;;;;0.30;0.30;;;25.20;48.50;;;;;;6181636;23;20163;-88
2023/10/28 11:57:45;;;;;;;0.47;0.47;;;25.30;48.40;;;;;;6182117;23;20168;-87
2023/10/28 12:00:15;;;;;;;0.20;0.20;;;25.40;49.40;;;;;;6181558;23;20170;-89
2023/10/28 12:02:44;;;;;;;0.50;0.40;;;25.40;49.10;;;;;;6183188;23;20170;-88
2023/10/28 12:05:13;;;;;;;0.20;0.20;;;25.40;48.60;;;;;;6181820;23;20624;-89
2023/10/28 12:07:42;;;;;;;1.55;0.63;;;25.40;48.80;;;;;;6180892;23;20610;-87
2023/10/28 12:10:16;;;;;;;0.30;0.30;;;25.50;48.80;;;;;;6180746;23;20202;-92
2023/10/28 12:12:45;;;;;;;0.55;0.47;;;25.50;48.40;;;;;;6181831;23;20168;-87
2023/10/28 12:15:20;;;;;;;0.20;0.20;;;25.50;48.20;;;;;;6182982;23;20168;-89
2023/10/28 12:17:49;;;;;;;0.52;0.52;;;25.50;48.10;;;;;;6181275;23;20171;-87
2023/10/28 12:20:17;;;;;;;0.88;0.88;;;25.60;48.90;;;;;;6181002;23;20226;-85
2023/10/28 12:22:46;;;;;;;0.20;0.20;;;25.60;48.60;;;;;;6181254;23;20164;-87
2023/10/28 12:25:17;;;;;;;0.22;0.22;;;25.70;48.50;;;;;;6182361;23;20566;-88
2023/10/28 12:27:46;;;;;;;0.22;0.22;;;25.70;48.20;;;;;;6179100;23;20183;-86
2023/10/28 12:30:17;;;;;;;3.40;0.55;;;25.70;48.30;;;;;;6181927;23;20254;-90
2023/10/28 12:32:46;;;;;;;5.82;0.63;;;25.70;48.10;;;;;;6181821;23;20163;-88
2023/10/28 12:35:15;;;;;;;0.20;0.20;;;25.80;48.70;;;;;;6184435;23;20163;-89
2023/10/28 12:37:44;;;;;;;0.30;0.30;;;25.80;47.80;;;;;;6183080;23;20172;-88
2023/10/28 12:40:13;;;;;;;0.40;0.40;;;25.90;48.00;;;;;;6181813;23;20168;-86
2023/10/28 12:42:43;;;;;;;0.20;0.20;;;25.90;48.10;;;;;;6180128;23;20194;-86
2023/10/28 12:45:13;;;;;;;0.40;0.40;;;25.90;47.90;;;;;;6181816;23;20187;-88
2023/10/28 12:47:44;;;;;;;0.10;0.10;;;25.90;47.90;;;;;;6181489;23;20206;-87
2023/10/28 12:50:16;;;;;;;0.13;0.13;;;26.00;48.00;;;;;;6182588;23;20278;-88
2023/10/28 12:52:47;;;;;;;0.75;0.20;;;26.00;47.50;;;;;;6181378;23;20503;-88
2023/10/28 12:55:16;;;;;;;0.20;0.20;;;26.10;48.30;;;;;;6180446;23;20168;-88
2023/10/28 12:57:46;;;;;;;0.20;0.20;;;26.10;47.90;;;;;;6182479;23;20199;-87
2023/10/28 13:00:17;;;;;;;1.13;0.95;;;26.10;47.50;;;;;;6183213;23;20170;-88
2023/10/28 13:02:48;;;;;;;1.33;0.40;;;26.20;47.20;;;;;;6156278;23;20561;-89
2023/10/28 13:05:18;;;;;;;0.20;0.20;;;26.20;47.30;;;;;;6182533;23;20167;-87
2023/10/28 13:07:47;;;;;;;0.20;0.20;;;26.20;47.30;;;;;;6183762;23;20251;-90
2023/10/28 13:10:16;;;;;;;0.35;0.35;;;26.20;47.20;;;;;;6182009;23;20198;-92
2023/10/28 13:12:46;;;;;;;0.80;0.35;;;26.30;47.60;;;;;;6182543;23;20170;-89
2023/10/28 13:15:17;;;;;;;0.20;0.20;;;26.40;47.80;;;;;;6180314;23;20255;-89
2023/10/28 13:17:47;;;;;;;0.28;0.28;;;26.30;47.20;;;;;;6181507;23;20598;-88
2023/10/28 13:20:16;;;;;;;0.20;0.20;;;26.30;47.30;;;;;;6181841;23;20203;-86
2023/10/28 13:22:46;;;;;;;0.20;0.20;;;26.40;47.90;;;;;;6182495;23;20164;-89
2023/10/28 13:25:17;;;;;;;0.20;0.20;;;26.30;47.80;;;;;;6180723;23;20601;-88
2023/10/28 13:27:48;;;;;;;0.50;0.50;;;26.30;48.00;;;;;;6183276;23;20168;-87